Bookmark and Share
Track history (hours):
 

East Blacksea

Last reported at 2014-Apr-17 13:06 UTC. Time now 2014-Apr-18 08:05 UTC.
Position N 38°40' E 008°53'.

Length 69 m; draft 3.4 m.

Type: Cargo ship. MMSI: 572341210.

NotesDate/timePositionNaut miles runAvg speedWind from/ knotsBaromVisibWave heightAir tempDewpointWater temp
2014-Apr-17 13:06N 38°40' E 008°53'5 8.5
2014-Apr-17 12:34N 38°40' E 008°47'21 8.6
2014-Apr-17 10:08N 38°42' E 008°21'208 9.2
2014-Apr-16 11:30N 39°43' E 004°04'12 9.3
2014-Apr-16 10:14N 39°48' E 003°50'8 8.7
2014-Apr-16 09:22N 39°52' E 003°41'7 8.3
2014-Apr-16 08:33N 39°56' E 003°34'28 8.9
2014-Apr-16 05:27N 40°18' E 003°13'6 6.5
2014-Apr-16 04:33N 40°21' E 003°06'8 8.2
2014-Apr-16 03:33N 40°20' E 002°56'8 8.0
2014-Apr-16 02:33N 40°21' E 002°45'9 8.6
2014-Apr-16 01:34N 40°25' E 002°36'9 8.9
2014-Apr-16 00:34N 40°30' E 002°26'9 9.0
2014-Apr-15 23:33N 40°35' E 002°16'9 9.1
2014-Apr-15 22:33N 40°40' E 002°06'9 9.3
2014-Apr-15 21:34N 40°45' E 001°55'9 9.1
2014-Apr-15 20:34N 40°50' E 001°45'10 9.3
2014-Apr-15 19:27N 40°56' E 001°34'18 9.3
2014-Apr-15 17:31N 41°05' E 001°13'5 0.3
2014-Apr-14 23:32N 40°60' E 001°12'9 9.2
2014-Apr-14 22:34N 40°52' E 001°08'10 9.2
2014-Apr-14 21:31N 40°43' E 001°02'19 9.6
2014-Apr-14 19:33N 40°26' E 000°52'10 9.4
2014-Apr-14 18:29N 40°18' E 000°44'8 8.9
2014-Apr-14 17:33N 40°11' E 000°37'9 9.3
2014-Apr-14 16:33N 40°04' E 000°30'  
2014-Apr-11 12:12N 38°09' W 000°00'5 8.4
2014-Apr-11 11:33N 38°04' W 000°04'20 8.3
2014-Apr-11 09:12N 37°48' W 000°18'7 8.6
2014-Apr-11 08:24N 37°42' W 000°23'244 7.6
2014-Apr-10 00:16N 36°05' W 005°03'6 9.1
2014-Apr-09 23:33N 36°02' W 005°10'9 9.4
2014-Apr-09 22:33N 35°60' W 005°22'10 9.2
2014-Apr-09 21:30N 35°56' W 005°33'7 7.5
2014-Apr-09 20:33N 35°54' W 005°41'8 6.5
2014-Apr-09 19:20N 35°53' W 005°51'  

Dump ship's entire track history

sailing weather and tide predictions

East Blacksea — T2ZH3 — position and weather